Etusivu
METAR-TAF:

METAR-TAF

Lentoasemat :

Fort-de-France, Martinique

Leveyspiiri: 14-36N, Pituuspiiri: 061-00W, korkeus merenpinnasta: 5 m

Tämänhetkinen sää

Tämä raportti tehtiin 30 minuuttia sitten, kello 09.30 UTC
Tuuli 3 kn eri suunnista
Lämpötila 24°C
Kosteus 94%
Ilmanpaine 1011 hPa
Näkyvyys 10 km tai enemmän
Muutamia pilviä 2800 ft:n korkeudessa

METAR: TFFF 130930Z AUTO VRB03KT 9999 FEW028 24/23 Q1011 TEMPO 4000 SHRA SCT018TCU

Aika: 06:00 (10:00 UTC)

Sääennuste

Tämä raportti tehtiin 5 tuntia ja 0 minuuttia sitten, kello 05.00 UTC
Ennuste voimassa 13. päivästä klo 06 UTC - 14. päivään klo 06 UTC
Tuuli 8 kn idästä/koillisesta
Näkyvyys 10 km tai enemmän
Hajanaisia pilviä 2500 ft:n korkeudessa
Todennäköisyys 30% :
Ajoittain
13. päivästä klo 06 UTC - 14. päivään klo 06 UTC
Näkyvyys: 4000 m
Hajanaisia pilviä 1800 ft:n korkeudessa, Kasvava cumulus-pilvi.
vesikuuroja

TAF: TFFF 130500Z 1306/1406 06008KT 9999 SCT025 PROB30 TEMPO 1306/1406 4000 SHRA SCT018TCU

Säähavainnot ja -ennusteet yli 4000 lentoasemalta (METAR- ja TAF-raportit).

Käytössä olevat sääasemat on merkitty karttaan keltaisilla ja punaisilla pisteillä.

Aseta hiiri pisteen päälle nähdäksesi sääaseman nimen.

Klikkaa sitten nähdäksesi säähavainnot ja -ennusteet.

Kartan vaihtaminen: klikkaa mustalla rastilla varustettuja vihreitä pisteitä, niin voit zoomata sisään; viivalla varustettua vihreää pistettä, niin voit zoomata ulos tai vihreitä nuolia, niin pääset viereisille kartoille.


METAR-TAF: